createdAt,value
2019-05-12T00:03:41.028Z,6.53
2019-05-12T00:08:48.747Z,5.24
2019-05-12T00:13:55.514Z,5.90
2019-05-12T00:19:01.806Z,6.64
2019-05-12T00:24:08.204Z,7.47
2019-05-12T00:29:14.408Z,4.84
2019-05-12T00:34:20.570Z,5.93
2019-05-12T00:39:30.043Z,6.16
2019-05-12T00:44:38.906Z,6.39
2019-05-12T00:49:45.224Z,6.72
2019-05-12T00:54:51.415Z,6.44
2019-05-12T00:59:58.239Z,5.47
2019-05-12T01:05:04.988Z,5.27
2019-05-12T01:10:11.372Z,6.21
2019-05-12T01:15:17.922Z,5.42
2019-05-12T01:20:24.377Z,7.53
2019-05-12T01:25:30.672Z,6.80
2019-05-12T01:30:39.081Z,5.73
2019-05-12T01:35:47.749Z,7.24
2019-05-12T01:40:54.637Z,5.77
2019-05-12T01:46:00.818Z,5.51
2019-05-12T01:51:08.426Z,5.21
2019-05-12T01:56:14.910Z,7.53
2019-05-12T02:01:22.723Z,7.19
2019-05-12T02:06:29.179Z,5.06
2019-05-12T02:11:35.242Z,6.01
2019-05-12T02:16:41.647Z,6.82
2019-05-12T02:21:48.713Z,7.21
2019-05-12T02:26:55.243Z,7.04
2019-05-12T02:32:02.543Z,6.03
2019-05-12T02:37:08.823Z,7.24
2019-05-12T02:42:15.732Z,6.42
2019-05-12T02:47:24.152Z,5.00
2019-05-12T02:52:30.733Z,4.70
2019-05-12T02:57:36.926Z,5.15
2019-05-12T03:02:44.236Z,6.44
2019-05-12T03:07:50.722Z,4.97
2019-05-12T03:12:56.875Z,6.14
2019-05-12T03:18:06.168Z,4.47
2019-05-12T03:23:05.854Z,4.65
2019-05-12T03:28:15.896Z,5.60
2019-05-12T03:33:33.524Z,4.68
2019-05-12T03:38:28.817Z,4.78
2019-05-12T03:43:35.321Z,4.77
2019-05-12T03:48:45.086Z,5.98
2019-05-12T03:53:45.113Z,5.06
2019-05-12T03:58:45.326Z,5.99
2019-05-12T04:03:54.182Z,8.60
2019-05-12T04:09:00.675Z,5.34
2019-05-12T04:14:06.877Z,6.67
2019-05-12T04:19:14.619Z,8.13
2019-05-12T04:24:24.735Z,5.17
2019-05-12T04:29:24.832Z,5.55
2019-05-12T04:34:24.875Z,5.66
2019-05-12T04:39:25.088Z,5.46
2019-05-12T04:44:25.080Z,4.88
2019-05-12T04:49:24.949Z,5.51
2019-05-12T04:54:35.331Z,5.07
2019-05-12T04:59:34.525Z,8.16
2019-05-12T05:04:43.944Z,5.47
2019-05-12T05:09:50.773Z,5.28
2019-05-12T05:14:57.200Z,6.76
2019-05-12T05:20:04.160Z,5.68
2019-05-12T05:25:11.007Z,5.69
2019-05-12T05:30:17.384Z,6.15
2019-05-12T05:35:23.968Z,5.57
2019-05-12T05:40:30.705Z,5.96
2019-05-12T05:45:37.174Z,4.44
2019-05-12T05:50:43.921Z,7.44
2019-05-12T05:55:55.142Z,6.96
2019-05-12T06:01:03.001Z,6.75
2019-05-12T06:06:10.354Z,7.52
2019-05-12T06:11:08.632Z,7.03
2019-05-12T06:16:20.824Z,7.56
2019-05-12T06:21:19.296Z,8.85
2019-05-12T06:26:30.969Z,7.09
2019-05-12T06:31:30.039Z,6.42
2019-05-12T06:36:36.427Z,7.12
2019-05-12T06:41:44.390Z,6.26
2019-05-12T06:46:53.557Z,5.25
2019-05-12T06:52:01.772Z,6.39
2019-05-12T06:57:18.582Z,7.61
2019-05-12T07:02:05.790Z,5.50
2019-05-12T07:07:14.135Z,6.77
2019-05-12T07:12:26.870Z,6.73
2019-05-12T07:17:26.699Z,6.21
2019-05-12T07:22:43.788Z,5.30
2019-05-12T07:27:40.160Z,5.20
2019-05-12T07:32:43.245Z,5.07
2019-05-12T07:37:50.029Z,5.71
2019-05-12T07:42:56.300Z,6.15
2019-05-12T07:48:05.623Z,6.10
2019-05-12T07:53:04.865Z,4.61
2019-05-12T07:58:15.605Z,5.27
2019-05-12T08:03:20.712Z,4.59
2019-05-12T08:08:17.592Z,5.85
2019-05-12T08:13:24.149Z,4.73
2019-05-12T08:18:35.756Z,5.39
2019-05-12T08:23:38.044Z,10.09
2019-05-12T08:28:44.601Z,6.60
2019-05-12T08:33:51.039Z,6.53
2019-05-12T08:38:57.125Z,4.02
2019-05-12T08:44:04.636Z,4.38
2019-05-12T08:49:11.361Z,7.37
2019-05-12T08:54:17.675Z,9.61
2019-05-12T08:59:27.169Z,5.62
2019-05-12T09:04:34.019Z,13.50
2019-05-12T09:09:40.194Z,6.34
2019-05-12T09:14:46.534Z,10.55
2019-05-12T09:19:55.061Z,5.29
2019-05-12T09:25:06.181Z,5.80
2019-05-12T09:30:09.353Z,3.38
2019-05-12T09:35:06.171Z,5.93
2019-05-12T09:40:14.732Z,3.72
2019-05-12T09:45:21.431Z,3.88
2019-05-12T09:50:27.750Z,4.40
2019-05-12T09:55:34.462Z,3.93
2019-05-12T10:00:40.892Z,3.17
2019-05-12T10:05:47.527Z,4.91
2019-05-12T10:10:54.068Z,3.49
2019-05-12T10:16:07.389Z,5.12
2019-05-12T10:21:05.188Z,6.91
2019-05-12T10:26:12.297Z,5.25
2019-05-12T10:31:21.109Z,7.45
2019-05-12T10:36:27.470Z,6.47
2019-05-12T10:41:34.265Z,7.72
2019-05-12T10:46:42.534Z,6.69
2019-05-12T10:51:49.059Z,7.45
2019-05-12T10:56:55.419Z,8.71
2019-05-12T11:02:03.537Z,4.50
2019-05-12T11:07:10.478Z,4.97
2019-05-12T11:12:19.013Z,4.03
2019-05-12T11:17:20.433Z,3.43
2019-05-12T11:22:26.706Z,6.64
2019-05-12T11:27:34.535Z,4.90
2019-05-12T11:32:40.892Z,5.04
2019-05-12T11:37:47.476Z,4.36
2019-05-12T11:42:59.490Z,4.24
2019-05-12T11:48:05.007Z,5.93
2019-05-12T11:53:04.422Z,5.26
2019-05-12T11:58:11.701Z,4.08
2019-05-12T12:03:18.469Z,4.01
2019-05-12T12:08:26.515Z,3.79
2019-05-12T12:13:30.050Z,3.88
2019-05-12T12:18:36.681Z,4.02
2019-05-12T12:23:48.738Z,3.95
2019-05-12T12:28:46.726Z,4.49
2019-05-12T12:33:53.752Z,5.33
2019-05-12T12:39:00.195Z,3.66
2019-05-12T12:44:06.622Z,4.68
2019-05-12T12:49:14.007Z,5.30
2019-05-12T12:54:20.460Z,5.96
2019-05-12T12:59:26.827Z,3.28
2019-05-12T13:04:34.074Z,4.92
2019-05-12T13:09:40.829Z,4.20
2019-05-12T13:14:47.731Z,3.72
2019-05-12T13:19:58.559Z,6.39
2019-05-12T13:24:58.105Z,4.38
2019-05-12T13:30:02.247Z,4.76
2019-05-12T13:35:04.074Z,5.51
2019-05-12T13:40:11.115Z,4.50
2019-05-12T13:45:17.612Z,3.98
2019-05-12T13:50:26.279Z,5.73
2019-05-12T13:55:34.294Z,4.89
2019-05-12T14:00:50.931Z,3.92
2019-05-12T14:05:50.667Z,4.76
2019-05-12T14:10:59.689Z,4.82
2019-05-12T14:16:06.911Z,5.46
2019-05-12T14:21:14.068Z,4.54
2019-05-12T14:26:20.661Z,4.39
2019-05-12T14:31:35.129Z,7.20
2019-05-12T14:36:33.149Z,5.00
2019-05-12T14:41:44.437Z,4.26
2019-05-12T14:46:50.508Z,6.07
2019-05-12T14:51:47.207Z,5.85
2019-05-12T14:56:57.664Z,4.07
2019-05-12T15:01:59.188Z,5.56
2019-05-12T15:06:59.661Z,5.31
2019-05-12T15:12:03.556Z,6.14
2019-05-12T15:17:19.440Z,6.66
2019-05-12T15:22:17.126Z,6.46
2019-05-12T15:27:39.548Z,5.36
2019-05-12T15:32:34.008Z,8.66
2019-05-12T15:37:43.333Z,7.46
2019-05-12T15:42:54.954Z,6.53
2019-05-12T15:47:56.749Z,6.82
2019-05-12T15:53:05.492Z,5.27
2019-05-12T15:58:14.189Z,6.35
2019-05-12T16:03:23.609Z,6.85
2019-05-12T16:08:24.495Z,8.11
2019-05-12T16:13:33.825Z,7.83
2019-05-12T16:18:46.693Z,7.63
2019-05-12T16:23:47.024Z,7.61
2019-05-12T16:29:02.357Z,7.35
2019-05-12T16:34:01.571Z,9.06
2019-05-12T16:39:04.258Z,7.28
2019-05-12T16:44:07.855Z,5.97
2019-05-12T16:49:08.855Z,8.03
2019-05-12T16:54:15.228Z,6.91
2019-05-12T16:59:24.136Z,4.91
2019-05-12T17:04:33.276Z,6.22
2019-05-12T17:09:39.777Z,6.56
2019-05-12T17:14:49.905Z,4.65
2019-05-12T17:19:46.552Z,6.46
2019-05-12T17:24:53.897Z,8.00
2019-05-12T17:30:00.264Z,7.00
2019-05-12T17:35:10.123Z,6.30
2019-05-12T17:40:09.306Z,5.25
2019-05-12T17:45:18.014Z,7.02
2019-05-12T17:50:16.759Z,7.01
2019-05-12T17:55:23.252Z,5.83
2019-05-12T18:00:29.463Z,7.28
2019-05-12T18:05:35.913Z,5.18
2019-05-12T18:10:43.642Z,5.98
2019-05-12T18:15:50.379Z,5.39
2019-05-12T18:20:56.908Z,5.79
2019-05-12T18:26:11.816Z,5.67
2019-05-12T18:31:09.975Z,6.27
2019-05-12T18:36:16.672Z,6.39
2019-05-12T18:41:24.428Z,7.26
2019-05-12T18:46:36.258Z,6.59
2019-05-12T18:51:37.613Z,8.09
2019-05-12T18:56:44.242Z,8.37
2019-05-12T19:01:51.121Z,5.76
2019-05-12T19:06:57.581Z,6.41
2019-05-12T19:12:04.096Z,9.30
2019-05-12T19:17:10.555Z,4.90
2019-05-12T19:22:17.479Z,8.14
2019-05-12T19:27:24.457Z,6.02
2019-05-12T19:32:31.133Z,5.35
2019-05-12T19:37:37.676Z,7.54
2019-05-12T19:42:44.045Z,7.72
2019-05-12T19:47:50.444Z,5.70
2019-05-12T19:52:56.687Z,7.83
2019-05-12T20:03:08.601Z,6.32
2019-05-12T20:08:15.327Z,7.63
2019-05-12T20:13:23.940Z,8.30
2019-05-12T20:18:36.167Z,7.00
2019-05-12T20:23:37.024Z,9.12
2019-05-12T20:28:50.079Z,12.42
2019-05-12T20:33:47.350Z,7.13
2019-05-12T20:38:53.935Z,7.94
2019-05-12T20:44:00.421Z,10.20
2019-05-12T20:49:11.844Z,9.31
2019-05-12T20:54:13.999Z,8.70
2019-05-12T20:59:21.931Z,10.57
2019-05-12T21:04:22.018Z,9.07
2019-05-12T21:09:26.349Z,9.25
2019-05-12T21:14:33.401Z,8.82
2019-05-12T21:19:41.488Z,10.55
2019-05-12T21:24:45.135Z,11.50
2019-05-12T21:29:53.997Z,10.53
2019-05-12T21:35:14.854Z,8.02
2019-05-12T21:40:07.660Z,11.64
2019-05-12T21:50:16.357Z,10.54
2019-05-12T21:55:26.000Z,11.45
2019-05-12T22:00:23.791Z,9.98
2019-05-12T22:05:48.200Z,8.57
2019-05-12T22:10:36.773Z,10.37
2019-05-12T22:15:43.163Z,10.12
2019-05-12T22:20:52.373Z,10.85
2019-05-12T22:25:59.936Z,8.16
2019-05-12T22:30:56.862Z,9.28
2019-05-12T22:36:08.491Z,9.14
2019-05-12T22:41:09.867Z,10.33
2019-05-12T22:46:16.554Z,9.04
2019-05-12T22:51:23.553Z,9.11
2019-05-12T22:56:23.717Z,8.17
2019-05-12T23:01:34.658Z,11.18
2019-05-12T23:06:42.290Z,11.02
2019-05-12T23:11:41.260Z,9.17
2019-05-12T23:16:47.541Z,7.75
2019-05-12T23:21:57.155Z,8.54
2019-05-12T23:26:55.400Z,11.47
2019-05-12T23:32:07.295Z,10.32
2019-05-12T23:37:07.772Z,7.61
2019-05-12T23:42:14.028Z,11.47
2019-05-12T23:47:20.336Z,9.12
2019-05-12T23:52:26.695Z,9.59
2019-05-12T23:57:33.802Z,7.77
